Terminal Aerodrome Forecast
Issued by NWS Tampa Bay Area, FL

Home | Current Version | Previous Version | Text Only | Print | Product List | Glossary On
Versions: 1 2 3 4 5 6 7 8 9 10 11 12 13 14 15 16 17
000
FTUS42 KTBW 251100
TAFFMY
TAF
KFMY 251123Z 2512/2612 34006KT P6SM BKN035
     FM251600 01010KT P6SM SCT030 BKN045
     FM252300 05006KT P6SM BKN045=

USA.gov is the U.S. government's official web portal to all federal, state and local government web resources and services.